CSN5709 ZHCC-ZSAM
Flight info
| Callsign | CSN5709 |
|---|---|
| Flight time | 1h 39m |
| Altitude | 36100 |
| Route | RUM9Z RUMGU W594 EPGOS W128 FYG B208 HFE R343 UPLEL W95 SAPIN V143 EMRID A470 LJG |
| Aircraft | B77W/H-SDE1E2E3FGHIJ2J3J4J5M1RWXY/LB1D1 |
Departure
| Time | 2026-04-27 04:12 |
|---|---|
| Airport | Zhengzhou Xinzheng International Airport (ZHCC) |
Arrival
| Time | 2026-04-27 05:51 |
|---|---|
| Airport | Xiamen Gaoqi International Airport (ZSAM) |
| Time | Latitude | Longitude | Altitude | Speed | Heading |
|---|---|---|---|---|---|
| 2026-04-27 03:51 | 34.52628 | 113.85119 | 510 ft | 0 kts | 292° |
| 2026-04-27 04:01 | 34.52621 | 113.85141 | 510 ft | 4 kts | 292° |
| 2026-04-27 04:01 | 34.52611 | 113.85171 | 510 ft | 4 kts | 292° |
| 2026-04-27 04:02 | 34.52600 | 113.85202 | 510 ft | 4 kts | 292° |
| 2026-04-27 04:02 | 34.52590 | 113.85232 | 510 ft | 4 kts | 292° |
| 2026-04-27 04:02 | 34.52585 | 113.85248 | 510 ft | 3 kts | 293° |
| 2026-04-27 04:02 | 34.52564 | 113.85279 | 510 ft | 4 kts | 344° |
| 2026-04-27 04:03 | 34.52539 | 113.85279 | 510 ft | 4 kts | 18° |
| 2026-04-27 04:03 | 34.52522 | 113.85271 | 510 ft | 4 kts | 24° |
| 2026-04-27 04:03 | 34.52509 | 113.85265 | 510 ft | 0 kts | 22° |
| 2026-04-27 04:06 | 34.52511 | 113.85265 | 510 ft | 3 kts | 22° |
| 2026-04-27 04:07 | 34.52739 | 113.85379 | 510 ft | 28 kts | 22° |
| 2026-04-27 04:07 | 34.52918 | 113.85469 | 510 ft | 28 kts | 22° |
| 2026-04-27 04:07 | 34.53098 | 113.85559 | 510 ft | 28 kts | 22° |
| 2026-04-27 04:07 | 34.53215 | 113.85628 | 509 ft | 6 kts | 60° |
| 2026-04-27 04:08 | 34.53194 | 113.85749 | 508 ft | 26 kts | 113° |
| 2026-04-27 04:08 | 34.53123 | 113.85955 | 508 ft | 27 kts | 112° |
| 2026-04-27 04:08 | 34.53029 | 113.86231 | 508 ft | 27 kts | 112° |
| 2026-04-27 04:08 | 34.52983 | 113.86368 | 508 ft | 27 kts | 112° |
| 2026-04-27 04:09 | 34.52912 | 113.86575 | 507 ft | 27 kts | 112° |
| 2026-04-27 04:09 | 34.52842 | 113.86781 | 507 ft | 26 kts | 112° |
| 2026-04-27 04:09 | 34.52772 | 113.86988 | 507 ft | 26 kts | 112° |
| 2026-04-27 04:09 | 34.52692 | 113.87224 | 508 ft | 32 kts | 112° |
| 2026-04-27 04:10 | 34.52609 | 113.87467 | 508 ft | 31 kts | 113° |
| 2026-04-27 04:10 | 34.52580 | 113.87588 | 507 ft | 5 kts | 58° |
| 2026-04-27 04:10 | 34.52624 | 113.87622 | 505 ft | 9 kts | 25° |
| 2026-04-27 04:10 | 34.52669 | 113.87646 | 502 ft | 12 kts | 23° |
| 2026-04-27 04:11 | 34.52731 | 113.87643 | 502 ft | 11 kts | 306° |
| 2026-04-27 04:11 | 34.52815 | 113.87410 | 501 ft | 65 kts | 292° |
| 2026-04-27 04:11 | 34.52983 | 113.86914 | 489 ft | 122 kts | 292° |
| 2026-04-27 04:11 | 34.53401 | 113.85683 | 507 ft | 191 kts | 292° |
| 2026-04-27 04:12 | 34.53938 | 113.84078 | 998 ft | 202 kts | 294° |
| 2026-04-27 04:12 | 34.54451 | 113.82599 | 2020 ft | 190 kts | 297° |
| 2026-04-27 04:12 | 34.54954 | 113.81102 | 2694 ft | 196 kts | 297° |
| 2026-04-27 04:12 | 34.55509 | 113.79476 | 3001 ft | 227 kts | 297° |
| 2026-04-27 04:13 | 34.56181 | 113.77557 | 3052 ft | 260 kts | 296° |
| 2026-04-27 04:13 | 34.56890 | 113.75526 | 3899 ft | 262 kts | 296° |
| 2026-04-27 04:13 | 34.57836 | 113.72823 | 5067 ft | 266 kts | 297° |
| 2026-04-27 04:13 | 34.58330 | 113.71428 | 5681 ft | 267 kts | 297° |
| 2026-04-27 04:14 | 34.59068 | 113.69363 | 6486 ft | 270 kts | 298° |
| 2026-04-27 04:14 | 34.59748 | 113.67273 | 6808 ft | 274 kts | 286° |
| 2026-04-27 04:14 | 34.59760 | 113.64897 | 6832 ft | 292 kts | 254° |
| 2026-04-27 04:14 | 34.58687 | 113.62834 | 6862 ft | 296 kts | 220° |
| 2026-04-27 04:15 | 34.56907 | 113.61602 | 6885 ft | 296 kts | 200° |
| 2026-04-27 04:15 | 34.54991 | 113.60657 | 6865 ft | 298 kts | 202° |
| 2026-04-27 04:15 | 34.53105 | 113.59648 | 6821 ft | 293 kts | 205° |
| 2026-04-27 04:15 | 34.51238 | 113.58779 | 6917 ft | 290 kts | 185° |
| 2026-04-27 04:16 | 34.49243 | 113.59072 | 7542 ft | 290 kts | 162° |
| 2026-04-27 04:16 | 34.47280 | 113.59667 | 8217 ft | 299 kts | 167° |
| 2026-04-27 04:16 | 34.45204 | 113.60126 | 9012 ft | 306 kts | 168° |
| 2026-04-27 04:16 | 34.43105 | 113.60550 | 9989 ft | 305 kts | 172° |
| 2026-04-27 04:17 | 34.40978 | 113.60883 | 10778 ft | 313 kts | 174° |
| 2026-04-27 04:17 | 34.38757 | 113.61221 | 11395 ft | 330 kts | 174° |
| 2026-04-27 04:17 | 34.36411 | 113.61512 | 11791 ft | 351 kts | 176° |
| 2026-04-27 04:17 | 34.32983 | 113.62051 | 11786 ft | 394 kts | 173° |
| 2026-04-27 04:18 | 34.31146 | 113.62377 | 11774 ft | 397 kts | 173° |
| 2026-04-27 04:18 | 34.28410 | 113.62871 | 11760 ft | 398 kts | 171° |
| 2026-04-27 04:18 | 34.25729 | 113.63742 | 11748 ft | 400 kts | 161° |
| 2026-04-27 04:18 | 34.23213 | 113.65093 | 12115 ft | 405 kts | 153° |
| 2026-04-27 04:19 | 34.20794 | 113.66873 | 13133 ft | 410 kts | 148° |
| 2026-04-27 04:19 | 34.18374 | 113.68734 | 14146 ft | 415 kts | 149° |
| 2026-04-27 04:19 | 34.15906 | 113.70582 | 15139 ft | 419 kts | 150° |
| 2026-04-27 04:19 | 34.13418 | 113.72433 | 16152 ft | 422 kts | 151° |
| 2026-04-27 04:20 | 34.10903 | 113.74300 | 17142 ft | 427 kts | 151° |
| 2026-04-27 04:20 | 34.08358 | 113.76189 | 18050 ft | 432 kts | 152° |
| 2026-04-27 04:20 | 34.05778 | 113.78103 | 18833 ft | 439 kts | 152° |
| 2026-04-27 04:20 | 34.03162 | 113.80045 | 19578 ft | 445 kts | 152° |
| 2026-04-27 04:21 | 34.00545 | 113.81986 | 20317 ft | 451 kts | 152° |
| 2026-04-27 04:21 | 33.97856 | 113.83980 | 21060 ft | 456 kts | 153° |
| 2026-04-27 04:21 | 33.95139 | 113.85994 | 21784 ft | 462 kts | 153° |
| 2026-04-27 04:21 | 33.92383 | 113.88034 | 22495 ft | 468 kts | 153° |
| 2026-04-27 04:22 | 33.89597 | 113.90096 | 23185 ft | 473 kts | 153° |
| 2026-04-27 04:22 | 33.86777 | 113.92182 | 23808 ft | 479 kts | 153° |
| 2026-04-27 04:22 | 33.83926 | 113.94289 | 24377 ft | 483 kts | 153° |
| 2026-04-27 04:22 | 33.81070 | 113.96401 | 25090 ft | 483 kts | 154° |
| 2026-04-27 04:23 | 33.78202 | 113.98519 | 25698 ft | 487 kts | 154° |
| 2026-04-27 04:23 | 33.75294 | 114.00659 | 26147 ft | 494 kts | 154° |
| 2026-04-27 04:23 | 33.72443 | 114.03034 | 26438 ft | 506 kts | 144° |
| 2026-04-27 04:23 | 33.70039 | 114.06133 | 26834 ft | 522 kts | 130° |
| 2026-04-27 04:24 | 33.68195 | 114.09925 | 27367 ft | 533 kts | 117° |
| 2026-04-27 04:24 | 33.66914 | 114.14120 | 27767 ft | 537 kts | 110° |
| 2026-04-27 04:24 | 33.65699 | 114.18393 | 28110 ft | 544 kts | 111° |
| 2026-04-27 04:24 | 33.64416 | 114.22687 | 28528 ft | 549 kts | 112° |
| 2026-04-27 04:25 | 33.63088 | 114.26995 | 28975 ft | 552 kts | 112° |
| 2026-04-27 04:25 | 33.61716 | 114.31377 | 29408 ft | 556 kts | 113° |
| 2026-04-27 04:25 | 33.60361 | 114.35675 | 29778 ft | 560 kts | 113° |
| 2026-04-27 04:25 | 33.58998 | 114.39997 | 30126 ft | 564 kts | 113° |
| 2026-04-27 04:26 | 33.57607 | 114.44414 | 30414 ft | 568 kts | 113° |
| 2026-04-27 04:26 | 33.56211 | 114.48846 | 30757 ft | 569 kts | 113° |
| 2026-04-27 04:26 | 33.54814 | 114.53283 | 31194 ft | 568 kts | 113° |
| 2026-04-27 04:26 | 33.53415 | 114.57704 | 31650 ft | 563 kts | 114° |
| 2026-04-27 04:27 | 33.51694 | 114.61909 | 31804 ft | 562 kts | 126° |
| 2026-04-27 04:27 | 33.49275 | 114.65555 | 32059 ft | 556 kts | 139° |
| 2026-04-27 04:27 | 33.46397 | 114.68584 | 32491 ft | 546 kts | 149° |
| 2026-04-27 04:27 | 33.43248 | 114.71019 | 32895 ft | 534 kts | 156° |
| 2026-04-27 04:28 | 33.40075 | 114.73205 | 33245 ft | 534 kts | 155° |
| 2026-04-27 04:28 | 33.36880 | 114.75465 | 33718 ft | 533 kts | 155° |
| 2026-04-27 04:28 | 33.33698 | 114.77755 | 34088 ft | 533 kts | 155° |
| 2026-04-27 04:28 | 33.30532 | 114.80057 | 34401 ft | 533 kts | 154° |
| 2026-04-27 04:29 | 33.27375 | 114.82362 | 34734 ft | 533 kts | 154° |
| 2026-04-27 04:29 | 33.24212 | 114.84676 | 34982 ft | 535 kts | 154° |
| 2026-04-27 04:29 | 33.17812 | 114.89345 | 35041 ft | 538 kts | 154° |
| 2026-04-27 04:30 | 33.11519 | 114.93931 | 35033 ft | 529 kts | 154° |
| 2026-04-27 04:30 | 33.05242 | 114.98490 | 35040 ft | 527 kts | 154° |
| 2026-04-27 04:31 | 32.98980 | 115.03024 | 35050 ft | 526 kts | 154° |
| 2026-04-27 04:31 | 32.92743 | 115.07533 | 35037 ft | 526 kts | 154° |
| 2026-04-27 04:32 | 32.86479 | 115.12055 | 35045 ft | 526 kts | 154° |
| 2026-04-27 04:32 | 32.80177 | 115.16596 | 35047 ft | 535 kts | 154° |
| 2026-04-27 04:33 | 32.73757 | 115.21212 | 35046 ft | 541 kts | 153° |
| 2026-04-27 04:33 | 32.67356 | 115.25815 | 35035 ft | 541 kts | 154° |
| 2026-04-27 04:34 | 32.60921 | 115.30435 | 35040 ft | 540 kts | 154° |
| 2026-04-27 04:34 | 32.54499 | 115.35038 | 35008 ft | 538 kts | 153° |
| 2026-04-27 04:35 | 32.48099 | 115.39612 | 35032 ft | 537 kts | 153° |
| 2026-04-27 04:35 | 32.41747 | 115.44142 | 35033 ft | 536 kts | 153° |
| 2026-04-27 04:36 | 32.35352 | 115.48699 | 35034 ft | 537 kts | 153° |
| 2026-04-27 04:36 | 32.28957 | 115.53247 | 35034 ft | 537 kts | 153° |
| 2026-04-27 04:37 | 32.22558 | 115.57792 | 35021 ft | 536 kts | 153° |
| 2026-04-27 04:37 | 32.16156 | 115.62330 | 35030 ft | 536 kts | 153° |
| 2026-04-27 04:38 | 32.09805 | 115.66825 | 35039 ft | 535 kts | 153° |
| 2026-04-27 04:38 | 32.03432 | 115.71329 | 35027 ft | 533 kts | 153° |
| 2026-04-27 04:39 | 31.97074 | 115.75815 | 35012 ft | 532 kts | 153° |
| 2026-04-27 04:39 | 31.90737 | 115.80279 | 35028 ft | 530 kts | 153° |
| 2026-04-27 04:40 | 31.84454 | 115.84696 | 35037 ft | 530 kts | 153° |
| 2026-04-27 04:40 | 31.78128 | 115.89137 | 35040 ft | 530 kts | 153° |
| 2026-04-27 04:41 | 31.71795 | 115.93575 | 35039 ft | 530 kts | 153° |
| 2026-04-27 04:41 | 31.65456 | 115.98011 | 35032 ft | 531 kts | 153° |
| 2026-04-27 04:42 | 31.59144 | 116.02414 | 35046 ft | 532 kts | 153° |
| 2026-04-27 04:42 | 31.52780 | 116.06858 | 35053 ft | 533 kts | 153° |
| 2026-04-27 04:43 | 31.46405 | 116.11299 | 35061 ft | 534 kts | 153° |
| 2026-04-27 04:43 | 31.40011 | 116.15746 | 35054 ft | 534 kts | 153° |
| 2026-04-27 04:44 | 31.33676 | 116.20138 | 35059 ft | 532 kts | 154° |
| 2026-04-27 04:44 | 31.27310 | 116.24550 | 35071 ft | 531 kts | 154° |
| 2026-04-27 04:45 | 31.20952 | 116.28958 | 35065 ft | 531 kts | 154° |
| 2026-04-27 04:45 | 31.14592 | 116.33354 | 35093 ft | 531 kts | 154° |
| 2026-04-27 04:46 | 31.08223 | 116.37739 | 35063 ft | 531 kts | 154° |
| 2026-04-27 04:46 | 31.01906 | 116.42089 | 35076 ft | 531 kts | 154° |
| 2026-04-27 04:47 | 30.95542 | 116.46477 | 35062 ft | 531 kts | 154° |
| 2026-04-27 04:47 | 30.89173 | 116.50838 | 35056 ft | 531 kts | 154° |
| 2026-04-27 04:48 | 30.82810 | 116.55194 | 35070 ft | 531 kts | 154° |
| 2026-04-27 04:48 | 30.76448 | 116.59559 | 35064 ft | 530 kts | 153° |
| 2026-04-27 04:49 | 30.70147 | 116.63868 | 35063 ft | 528 kts | 153° |
| 2026-04-27 04:49 | 30.63819 | 116.68187 | 35057 ft | 527 kts | 153° |
| 2026-04-27 04:50 | 30.57494 | 116.72494 | 35059 ft | 527 kts | 153° |
| 2026-04-27 04:50 | 30.51174 | 116.76792 | 35048 ft | 526 kts | 153° |
| 2026-04-27 04:51 | 30.44906 | 116.81050 | 35039 ft | 525 kts | 153° |
| 2026-04-27 04:51 | 30.38607 | 116.85321 | 35046 ft | 524 kts | 153° |
| 2026-04-27 04:52 | 30.32314 | 116.89584 | 35054 ft | 523 kts | 153° |
| 2026-04-27 04:52 | 30.26034 | 116.93830 | 35053 ft | 522 kts | 154° |
| 2026-04-27 04:53 | 30.19801 | 116.98038 | 35036 ft | 522 kts | 153° |
| 2026-04-27 04:53 | 30.13532 | 117.02264 | 35051 ft | 521 kts | 153° |
| 2026-04-27 04:54 | 30.07274 | 117.06477 | 35058 ft | 520 kts | 154° |
| 2026-04-27 04:54 | 30.01018 | 117.10682 | 35059 ft | 521 kts | 153° |
| 2026-04-27 04:55 | 29.94798 | 117.14855 | 35055 ft | 521 kts | 154° |
| 2026-04-27 04:55 | 29.88532 | 117.19054 | 35044 ft | 520 kts | 154° |
| 2026-04-27 04:56 | 29.82278 | 117.23240 | 35045 ft | 520 kts | 154° |
| 2026-04-27 04:56 | 29.76028 | 117.27417 | 35060 ft | 519 kts | 154° |
| 2026-04-27 04:57 | 29.69829 | 117.31554 | 35073 ft | 519 kts | 154° |
| 2026-04-27 04:57 | 29.63583 | 117.35716 | 35055 ft | 519 kts | 154° |
| 2026-04-27 04:58 | 29.57331 | 117.39874 | 35043 ft | 519 kts | 154° |
| 2026-04-27 04:58 | 29.51077 | 117.44027 | 35050 ft | 519 kts | 154° |
| 2026-04-27 04:59 | 29.44817 | 117.48183 | 35053 ft | 520 kts | 154° |
| 2026-04-27 04:59 | 29.38593 | 117.52302 | 35040 ft | 520 kts | 154° |
| 2026-04-27 05:00 | 29.32329 | 117.56441 | 35064 ft | 520 kts | 154° |
| 2026-04-27 05:00 | 29.26063 | 117.60592 | 35053 ft | 520 kts | 154° |
| 2026-04-27 05:01 | 29.19784 | 117.64735 | 35052 ft | 521 kts | 154° |
| 2026-04-27 05:01 | 29.13541 | 117.68844 | 35050 ft | 521 kts | 154° |
| 2026-04-27 05:02 | 29.07252 | 117.72979 | 35043 ft | 521 kts | 154° |
| 2026-04-27 05:03 | 28.97823 | 117.79169 | 35042 ft | 520 kts | 154° |
| 2026-04-27 05:03 | 28.91553 | 117.83280 | 35055 ft | 519 kts | 154° |
| 2026-04-27 05:04 | 28.85334 | 117.87350 | 35050 ft | 518 kts | 154° |
| 2026-04-27 05:04 | 28.79078 | 117.91439 | 35035 ft | 518 kts | 154° |
| 2026-04-27 05:05 | 28.72837 | 117.95513 | 35060 ft | 517 kts | 154° |
| 2026-04-27 05:05 | 28.66596 | 117.99579 | 35056 ft | 516 kts | 154° |
| 2026-04-27 05:06 | 28.60368 | 118.03635 | 35042 ft | 515 kts | 154° |
| 2026-04-27 05:06 | 28.54191 | 118.07651 | 35050 ft | 515 kts | 154° |
| 2026-04-27 05:07 | 28.47977 | 118.11683 | 35044 ft | 514 kts | 154° |
| 2026-04-27 05:07 | 28.41770 | 118.15705 | 35040 ft | 513 kts | 154° |
| 2026-04-27 05:08 | 28.35574 | 118.19718 | 35050 ft | 512 kts | 154° |
| 2026-04-27 05:08 | 28.29439 | 118.23684 | 35040 ft | 510 kts | 154° |
| 2026-04-27 05:09 | 28.23279 | 118.27649 | 35073 ft | 508 kts | 155° |
| 2026-04-27 05:09 | 28.17135 | 118.31622 | 35074 ft | 509 kts | 154° |
| 2026-04-27 05:10 | 28.10969 | 118.35595 | 35077 ft | 510 kts | 154° |
| 2026-04-27 05:10 | 28.04835 | 118.39520 | 35078 ft | 510 kts | 155° |
| 2026-04-27 05:11 | 27.98658 | 118.43493 | 35076 ft | 510 kts | 155° |
| 2026-04-27 05:11 | 27.92486 | 118.47440 | 35078 ft | 510 kts | 155° |
| 2026-04-27 05:12 | 27.86321 | 118.51406 | 35087 ft | 510 kts | 155° |
| 2026-04-27 05:12 | 27.80136 | 118.55375 | 35084 ft | 512 kts | 155° |
| 2026-04-27 05:13 | 27.73973 | 118.59309 | 35072 ft | 512 kts | 155° |
| 2026-04-27 05:13 | 27.67768 | 118.63258 | 35070 ft | 511 kts | 155° |
| 2026-04-27 05:14 | 27.61577 | 118.67203 | 35062 ft | 511 kts | 155° |
| 2026-04-27 05:14 | 27.55392 | 118.71138 | 35071 ft | 510 kts | 155° |
| 2026-04-27 05:15 | 27.49250 | 118.75040 | 35087 ft | 510 kts | 155° |
| 2026-04-27 05:15 | 27.43070 | 118.78967 | 35074 ft | 511 kts | 155° |
| 2026-04-27 05:16 | 27.36883 | 118.82890 | 35077 ft | 510 kts | 155° |
| 2026-04-27 05:16 | 27.30704 | 118.86800 | 35049 ft | 507 kts | 155° |
| 2026-04-27 05:16 | 27.27681 | 118.88700 | 34911 ft | 503 kts | 155° |
| 2026-04-27 05:17 | 27.24636 | 118.90624 | 34695 ft | 502 kts | 155° |
| 2026-04-27 05:17 | 27.21594 | 118.92550 | 34400 ft | 502 kts | 155° |
| 2026-04-27 05:17 | 27.18548 | 118.94475 | 34047 ft | 503 kts | 156° |
| 2026-04-27 05:17 | 27.15490 | 118.96404 | 33600 ft | 505 kts | 155° |
| 2026-04-27 05:18 | 27.12416 | 118.98332 | 33077 ft | 508 kts | 155° |
| 2026-04-27 05:18 | 27.09312 | 119.00249 | 32575 ft | 510 kts | 155° |
| 2026-04-27 05:18 | 27.06203 | 119.02170 | 32122 ft | 511 kts | 155° |
| 2026-04-27 05:18 | 27.03131 | 119.04078 | 31690 ft | 512 kts | 154° |
| 2026-04-27 05:19 | 27.00015 | 119.06026 | 31206 ft | 514 kts | 154° |
| 2026-04-27 05:19 | 26.96889 | 119.07989 | 30723 ft | 515 kts | 154° |
| 2026-04-27 05:19 | 26.93758 | 119.09960 | 30226 ft | 517 kts | 154° |
| 2026-04-27 05:19 | 26.90620 | 119.11937 | 29627 ft | 519 kts | 154° |
| 2026-04-27 05:20 | 26.87478 | 119.13919 | 29120 ft | 518 kts | 153° |
| 2026-04-27 05:20 | 26.84347 | 119.15887 | 28573 ft | 511 kts | 155° |
| 2026-04-27 05:20 | 26.81082 | 119.17351 | 27468 ft | 507 kts | 171° |
| 2026-04-27 05:20 | 26.77637 | 119.17552 | 26659 ft | 501 kts | 191° |
| 2026-04-27 05:21 | 26.74328 | 119.16542 | 26306 ft | 488 kts | 204° |
| 2026-04-27 05:21 | 26.71289 | 119.14943 | 26050 ft | 479 kts | 209° |
| 2026-04-27 05:21 | 26.68321 | 119.13294 | 25735 ft | 474 kts | 208° |
| 2026-04-27 05:21 | 26.65377 | 119.11665 | 25361 ft | 471 kts | 208° |
| 2026-04-27 05:22 | 26.62467 | 119.10014 | 24981 ft | 467 kts | 209° |
| 2026-04-27 05:22 | 26.59587 | 119.08365 | 24615 ft | 464 kts | 209° |
| 2026-04-27 05:22 | 26.56732 | 119.06717 | 24316 ft | 460 kts | 209° |
| 2026-04-27 05:22 | 26.53900 | 119.05086 | 24027 ft | 456 kts | 209° |
| 2026-04-27 05:23 | 26.51122 | 119.03491 | 23717 ft | 454 kts | 208° |
| 2026-04-27 05:23 | 26.48321 | 119.01889 | 23344 ft | 452 kts | 208° |
| 2026-04-27 05:23 | 26.45532 | 119.00307 | 23023 ft | 448 kts | 208° |
| 2026-04-27 05:23 | 26.42764 | 118.98736 | 22619 ft | 446 kts | 208° |
| 2026-04-27 05:24 | 26.40001 | 118.97162 | 22212 ft | 445 kts | 208° |
| 2026-04-27 05:24 | 26.37249 | 118.95592 | 21832 ft | 443 kts | 209° |
| 2026-04-27 05:24 | 26.34513 | 118.94031 | 21560 ft | 440 kts | 209° |
| 2026-04-27 05:24 | 26.31799 | 118.92491 | 21280 ft | 437 kts | 209° |
| 2026-04-27 05:25 | 26.29126 | 118.90976 | 20916 ft | 437 kts | 209° |
| 2026-04-27 05:25 | 26.26417 | 118.89441 | 20584 ft | 436 kts | 209° |
| 2026-04-27 05:25 | 26.23719 | 118.87911 | 20285 ft | 434 kts | 209° |
| 2026-04-27 05:25 | 26.21037 | 118.86392 | 20024 ft | 431 kts | 209° |
| 2026-04-27 05:26 | 26.18366 | 118.84888 | 19758 ft | 429 kts | 209° |
| 2026-04-27 05:26 | 26.15707 | 118.83381 | 19454 ft | 429 kts | 209° |
| 2026-04-27 05:26 | 26.13053 | 118.81874 | 19124 ft | 428 kts | 210° |
| 2026-04-27 05:26 | 26.10435 | 118.80391 | 18841 ft | 427 kts | 209° |
| 2026-04-27 05:27 | 26.07787 | 118.78900 | 18590 ft | 425 kts | 209° |
| 2026-04-27 05:27 | 26.05157 | 118.77416 | 18356 ft | 423 kts | 209° |
| 2026-04-27 05:27 | 26.02537 | 118.75934 | 18090 ft | 422 kts | 209° |
| 2026-04-27 05:27 | 25.99926 | 118.74458 | 17784 ft | 421 kts | 209° |
| 2026-04-27 05:28 | 25.97316 | 118.72985 | 17486 ft | 420 kts | 209° |
| 2026-04-27 05:28 | 25.94714 | 118.71517 | 17221 ft | 419 kts | 209° |
| 2026-04-27 05:28 | 25.92117 | 118.70053 | 16982 ft | 418 kts | 210° |
| 2026-04-27 05:28 | 25.89530 | 118.68597 | 16753 ft | 416 kts | 209° |
| 2026-04-27 05:29 | 25.86947 | 118.67144 | 16462 ft | 416 kts | 209° |
| 2026-04-27 05:29 | 25.84404 | 118.65718 | 16292 ft | 414 kts | 209° |
| 2026-04-27 05:29 | 25.81845 | 118.64277 | 16148 ft | 411 kts | 209° |
| 2026-04-27 05:29 | 25.79299 | 118.62844 | 15952 ft | 410 kts | 209° |
| 2026-04-27 05:30 | 25.76753 | 118.61412 | 15686 ft | 410 kts | 209° |
| 2026-04-27 05:30 | 25.74209 | 118.59983 | 15459 ft | 410 kts | 209° |
| 2026-04-27 05:30 | 25.71658 | 118.58553 | 15209 ft | 411 kts | 209° |
| 2026-04-27 05:30 | 25.69108 | 118.57123 | 14980 ft | 410 kts | 209° |
| 2026-04-27 05:31 | 25.66573 | 118.55703 | 14885 ft | 407 kts | 209° |
| 2026-04-27 05:31 | 25.64052 | 118.54289 | 14659 ft | 407 kts | 209° |
| 2026-04-27 05:31 | 25.61556 | 118.52892 | 14441 ft | 407 kts | 209° |
| 2026-04-27 05:31 | 25.59039 | 118.51478 | 14305 ft | 405 kts | 209° |
| 2026-04-27 05:32 | 25.56525 | 118.50073 | 14175 ft | 404 kts | 209° |
| 2026-04-27 05:32 | 25.54018 | 118.48672 | 14005 ft | 403 kts | 209° |
| 2026-04-27 05:32 | 25.51515 | 118.47272 | 13836 ft | 403 kts | 209° |
| 2026-04-27 05:32 | 25.49012 | 118.45874 | 13647 ft | 403 kts | 208° |
| 2026-04-27 05:33 | 25.46508 | 118.44475 | 13483 ft | 402 kts | 208° |
| 2026-04-27 05:33 | 25.44014 | 118.43084 | 13369 ft | 401 kts | 208° |
| 2026-04-27 05:33 | 25.41564 | 118.41716 | 13237 ft | 400 kts | 208° |
| 2026-04-27 05:33 | 25.39084 | 118.40333 | 13084 ft | 399 kts | 208° |
| 2026-04-27 05:34 | 25.36606 | 118.38951 | 12928 ft | 398 kts | 208° |
| 2026-04-27 05:34 | 25.34139 | 118.37574 | 12776 ft | 397 kts | 208° |
| 2026-04-27 05:34 | 25.31669 | 118.36198 | 12657 ft | 396 kts | 208° |
| 2026-04-27 05:34 | 25.29215 | 118.34832 | 12556 ft | 395 kts | 208° |
| 2026-04-27 05:35 | 25.26764 | 118.33470 | 12387 ft | 394 kts | 208° |
| 2026-04-27 05:35 | 25.24311 | 118.32107 | 12228 ft | 395 kts | 208° |
| 2026-04-27 05:35 | 25.21857 | 118.30740 | 12077 ft | 395 kts | 208° |
| 2026-04-27 05:35 | 25.19440 | 118.29397 | 11996 ft | 393 kts | 208° |
| 2026-04-27 05:36 | 25.17000 | 118.28042 | 11915 ft | 391 kts | 208° |
| 2026-04-27 05:36 | 25.14574 | 118.26694 | 11867 ft | 391 kts | 208° |
| 2026-04-27 05:36 | 25.12141 | 118.25342 | 11813 ft | 391 kts | 208° |
| 2026-04-27 05:36 | 25.09715 | 118.23996 | 11823 ft | 391 kts | 208° |
| 2026-04-27 05:37 | 25.07282 | 118.22647 | 11814 ft | 390 kts | 208° |
| 2026-04-27 05:37 | 25.04876 | 118.21314 | 11738 ft | 383 kts | 208° |
| 2026-04-27 05:37 | 25.02521 | 118.20011 | 11629 ft | 375 kts | 208° |
| 2026-04-27 05:37 | 25.00242 | 118.18749 | 11451 ft | 370 kts | 207° |
| 2026-04-27 05:38 | 24.97952 | 118.17481 | 11108 ft | 365 kts | 207° |
| 2026-04-27 05:38 | 24.95735 | 118.16251 | 10247 ft | 352 kts | 207° |
| 2026-04-27 05:38 | 24.93507 | 118.15018 | 9353 ft | 365 kts | 207° |
| 2026-04-27 05:38 | 24.91249 | 118.13771 | 9244 ft | 359 kts | 207° |
| 2026-04-27 05:39 | 24.89043 | 118.12556 | 9194 ft | 351 kts | 207° |
| 2026-04-27 05:39 | 24.86880 | 118.11360 | 9141 ft | 345 kts | 207° |
| 2026-04-27 05:39 | 24.84795 | 118.10209 | 9002 ft | 323 kts | 207° |
| 2026-04-27 05:39 | 24.82861 | 118.09141 | 8837 ft | 300 kts | 207° |
| 2026-04-27 05:40 | 24.81051 | 118.08145 | 8645 ft | 283 kts | 207° |
| 2026-04-27 05:40 | 24.79347 | 118.07204 | 8333 ft | 273 kts | 207° |
| 2026-04-27 05:40 | 24.77663 | 118.06275 | 7921 ft | 268 kts | 207° |
| 2026-04-27 05:40 | 24.76013 | 118.05364 | 7501 ft | 264 kts | 207° |
| 2026-04-27 05:41 | 24.74369 | 118.04456 | 6992 ft | 265 kts | 207° |
| 2026-04-27 05:41 | 24.72734 | 118.03556 | 6584 ft | 261 kts | 207° |
| 2026-04-27 05:41 | 24.71112 | 118.02659 | 6100 ft | 262 kts | 207° |
| 2026-04-27 05:41 | 24.69491 | 118.01767 | 5680 ft | 259 kts | 206° |
| 2026-04-27 05:42 | 24.67898 | 118.00891 | 5288 ft | 255 kts | 206° |
| 2026-04-27 05:42 | 24.66324 | 118.00026 | 4899 ft | 251 kts | 206° |
| 2026-04-27 05:42 | 24.64747 | 117.99159 | 4388 ft | 254 kts | 206° |
| 2026-04-27 05:42 | 24.63210 | 117.98311 | 4277 ft | 248 kts | 206° |
| 2026-04-27 05:43 | 24.61648 | 117.97452 | 4278 ft | 253 kts | 206° |
| 2026-04-27 05:43 | 24.60055 | 117.96576 | 4313 ft | 260 kts | 206° |
| 2026-04-27 05:43 | 24.58436 | 117.95686 | 4306 ft | 259 kts | 206° |
| 2026-04-27 05:43 | 24.56844 | 117.94811 | 4355 ft | 253 kts | 206° |
| 2026-04-27 05:44 | 24.55269 | 117.93946 | 4364 ft | 254 kts | 206° |
| 2026-04-27 05:44 | 24.53685 | 117.93075 | 4362 ft | 255 kts | 206° |
| 2026-04-27 05:44 | 24.52101 | 117.92205 | 4358 ft | 255 kts | 205° |
| 2026-04-27 05:44 | 24.50540 | 117.91349 | 4357 ft | 245 kts | 206° |
| 2026-04-27 05:45 | 24.49078 | 117.90547 | 4333 ft | 231 kts | 206° |
| 2026-04-27 05:45 | 24.47687 | 117.89785 | 4299 ft | 215 kts | 204° |
| 2026-04-27 05:45 | 24.46321 | 117.89437 | 4238 ft | 195 kts | 172° |
| 2026-04-27 05:45 | 24.45088 | 117.89989 | 4300 ft | 197 kts | 150° |
| 2026-04-27 05:46 | 24.43957 | 117.90840 | 4276 ft | 196 kts | 144° |
| 2026-04-27 05:46 | 24.42891 | 117.91734 | 4273 ft | 192 kts | 143° |
| 2026-04-27 05:46 | 24.41871 | 117.92697 | 4022 ft | 193 kts | 130° |
| 2026-04-27 05:46 | 24.41411 | 117.94028 | 3800 ft | 192 kts | 91° |
| 2026-04-27 05:47 | 24.41864 | 117.95393 | 3617 ft | 196 kts | 52° |
| 2026-04-27 05:47 | 24.42787 | 117.96497 | 3397 ft | 198 kts | 51° |
| 2026-04-27 05:47 | 24.43638 | 117.97683 | 3131 ft | 197 kts | 53° |
| 2026-04-27 05:47 | 24.44470 | 117.98863 | 2864 ft | 194 kts | 53° |
| 2026-04-27 05:48 | 24.45291 | 118.00012 | 2627 ft | 188 kts | 53° |
| 2026-04-27 05:48 | 24.46087 | 118.01124 | 2372 ft | 181 kts | 53° |
| 2026-04-27 05:48 | 24.46842 | 118.02179 | 2132 ft | 170 kts | 53° |
| 2026-04-27 05:48 | 24.47549 | 118.03167 | 1965 ft | 165 kts | 53° |
| 2026-04-27 05:49 | 24.48264 | 118.04168 | 1722 ft | 168 kts | 52° |
| 2026-04-27 05:49 | 24.48983 | 118.05172 | 1503 ft | 168 kts | 52° |
| 2026-04-27 05:49 | 24.49701 | 118.06177 | 1286 ft | 167 kts | 52° |
| 2026-04-27 05:49 | 24.50415 | 118.07176 | 1067 ft | 166 kts | 53° |
| 2026-04-27 05:50 | 24.51129 | 118.08175 | 839 ft | 165 kts | 52° |
| 2026-04-27 05:50 | 24.51835 | 118.09151 | 634 ft | 161 kts | 52° |
| 2026-04-27 05:50 | 24.52509 | 118.10093 | 420 ft | 153 kts | 53° |
| 2026-04-27 05:50 | 24.53148 | 118.10990 | 222 ft | 145 kts | 52° |
| 2026-04-27 05:51 | 24.53750 | 118.11847 | 62 ft | 138 kts | 53° |
| 2026-04-27 05:51 | 24.54271 | 118.12571 | 58 ft | 100 kts | 51° |
| 2026-04-27 05:51 | 24.54588 | 118.13013 | 54 ft | 29 kts | 52° |
| 2026-04-27 05:51 | 24.54683 | 118.13159 | 49 ft | 25 kts | 60° |
| 2026-04-27 05:52 | 24.54710 | 118.13294 | 56 ft | 16 kts | 84° |
| 2026-04-27 05:52 | 24.54714 | 118.13338 | 52 ft | 0 kts | 91° |
| 2026-04-27 05:52 | 24.54713 | 118.13351 | 55 ft | 7 kts | 95° |
| 2026-04-27 05:52 | 24.54658 | 118.13428 | 47 ft | 19 kts | 142° |
| 2026-04-27 05:53 | 24.54550 | 118.13373 | 54 ft | 24 kts | 232° |
| 2026-04-27 05:53 | 24.54466 | 118.13253 | 51 ft | 14 kts | 232° |
| 2026-04-27 05:53 | 24.54452 | 118.13156 | 52 ft | 14 kts | 283° |
| 2026-04-27 05:53 | 24.54415 | 118.13058 | 51 ft | 14 kts | 232° |
| 2026-04-27 05:54 | 24.54349 | 118.12967 | 52 ft | 17 kts | 231° |
| 2026-04-27 05:54 | 24.54267 | 118.12852 | 55 ft | 21 kts | 232° |
| 2026-04-27 05:54 | 24.54168 | 118.12818 | 53 ft | 15 kts | 149° |
| 2026-04-27 05:54 | 24.54070 | 118.12825 | 58 ft | 17 kts | 222° |
| 2026-04-27 05:55 | 24.53989 | 118.12717 | 53 ft | 20 kts | 232° |
| 2026-04-27 05:55 | 24.53897 | 118.12588 | 54 ft | 15 kts | 232° |
| 2026-04-27 05:55 | 24.53850 | 118.12539 | 61 ft | 7 kts | 193° |
| 2026-04-27 05:55 | 24.53807 | 118.12556 | 61 ft | 0 kts | 147° |
| 2026-04-27 05:56 | 24.53798 | 118.12563 | 58 ft | 2 kts | 146° |
| 2026-04-27 05:56 | 24.53793 | 118.12566 | 58 ft | 0 kts | 146° |